Chitose — JD2925 — position and weather

sailwx.info

Track history (hours):
 
Tides and Currents Weather Stations Pressure Air Temp Water Temp Dewpoint Dewpoint Depression Visibility Wind Speed Wind Dir Waves Ship Positions

Chitose

Last reported at 2018-Apr-25 21:30 UTC. Time now 2018-Apr-25 21:44 UTC.
Position N 35°28' E 139°41'.

Length 33 m; draft 3.8 m.

Type: Tug. MMSI: 431000953.

Date/timePositionNaut miles runAvg speedWind from/ knotsBaromVisibWave heightAir tempDewpointWater temp
2018-Apr-25 21:30N 35°28' E 139°41'2 3.2
2018-Apr-25 21:00N 35°27' E 139°40'0 0.0
2018-Apr-24 22:59N 35°27' E 139°40'2 3.3
2018-Apr-24 22:30N 35°28' E 139°41'0 0.2
2018-Apr-24 22:00N 35°28' E 139°41'2 3.8
2018-Apr-24 21:30N 35°27' E 139°44'1 2.9
2018-Apr-24 21:01N 35°27' E 139°42'0 0.0
2018-Apr-24 20:31N 35°27' E 139°42'1 2.4
2018-Apr-24 20:01N 35°26' E 139°41'0 0.1
2018-Apr-24 19:30N 35°26' E 139°41'1 2.3
2018-Apr-24 19:00N 35°27' E 139°40'0 0.0
2018-Apr-24 09:53N 35°27' E 139°40'2 4.2
2018-Apr-24 09:30N 35°28' E 139°41'1 1.9
2018-Apr-24 09:00N 35°28' E 139°42'2 4.3
2018-Apr-24 08:31N 35°27' E 139°44'2 3.8
2018-Apr-24 08:00N 35°28' E 139°42'0 0.0
2018-Apr-24 07:30N 35°28' E 139°42'0 0.0
2018-Apr-24 07:00N 35°28' E 139°42'0 0.0
2018-Apr-24 06:30N 35°28' E 139°42'0 0.0
2018-Apr-24 06:00N 35°28' E 139°42'0 0.0
2018-Apr-24 05:30N 35°28' E 139°42'0 0.0
2018-Apr-24 05:00N 35°28' E 139°42'0 0.0
2018-Apr-24 04:30N 35°28' E 139°42'2 3.8
2018-Apr-24 04:00N 35°29' E 139°43'3 6.0
2018-Apr-24 03:30N 35°31' E 139°46'0 0.0
2018-Apr-24 03:00N 35°31' E 139°46'0 0.6
2018-Apr-24 02:30N 35°31' E 139°46'1 2.5
2018-Apr-24 02:00N 35°30' E 139°48'1 1.6
2018-Apr-24 01:30N 35°29' E 139°47'4 8.4
2018-Apr-24 01:00N 35°27' E 139°43'2 4.8
2018-Apr-24 00:30N 35°27' E 139°40'0 0.0
2018-Apr-24 00:01N 35°27' E 139°40'0 0.0
2018-Apr-23 23:30N 35°27' E 139°40'0 0.0
2018-Apr-23 23:00N 35°27' E 139°40'0 0.0
2018-Apr-22 23:46N 35°27' E 139°40'1 3.8
2018-Apr-22 23:30N 35°27' E 139°41'0 0.6
2018-Apr-22 23:01N 35°26' E 139°41'2 3.0
2018-Apr-22 22:31N 35°26' E 139°43'1 2.1
2018-Apr-22 22:00N 35°27' E 139°43'0 0.0
2018-Apr-22 21:30N 35°27' E 139°43'0 0.0
2018-Apr-22 21:00N 35°27' E 139°43'0 0.1
2018-Apr-22 20:30N 35°27' E 139°43'1 2.4
2018-Apr-22 20:00N 35°28' E 139°42'0 0.1
2018-Apr-22 19:30N 35°28' E 139°42'0 0.7
2018-Apr-22 19:00N 35°28' E 139°42'0 0.0
2018-Apr-22 18:30N 35°28' E 139°42'0 0.0
2018-Apr-22 18:00N 35°28' E 139°42'0 0.0
2018-Apr-22 17:30N 35°28' E 139°42'0 0.0
2018-Apr-22 17:00N 35°28' E 139°42'0 0.0
2018-Apr-22 16:30N 35°28' E 139°42'1 2.6
2018-Apr-22 16:00N 35°26' E 139°42'3 5.8
2018-Apr-22 15:31N 35°24' E 139°41'0 0.2
2018-Apr-22 15:00N 35°24' E 139°41'1 2.4
2018-Apr-22 14:30N 35°25' E 139°42'2 4.6
2018-Apr-22 14:00N 35°27' E 139°41'0 0.0
2018-Apr-22 13:30N 35°27' E 139°41'0 0.0
2018-Apr-22 13:00N 35°27' E 139°41'0 0.0
2018-Apr-22 12:30N 35°27' E 139°41'0 0.0
2018-Apr-22 12:00N 35°27' E 139°41'0 0.0
2018-Apr-22 11:30N 35°27' E 139°41'0 0.3
2018-Apr-22 11:01N 35°27' E 139°41'0 0.5
2018-Apr-22 10:30N 35°27' E 139°40'0 0.7
2018-Apr-22 10:00N 35°27' E 139°41'2 4.0
2018-Apr-22 09:30N 35°26' E 139°43'1 1.5
2018-Apr-22 09:00N 35°27' E 139°43'0 0.9
2018-Apr-22 08:30N 35°27' E 139°42'1 1.2
2018-Apr-22 08:00N 35°28' E 139°42'0 0.6
2018-Apr-22 07:30N 35°28' E 139°42'1 1.4
2018-Apr-22 07:00N 35°28' E 139°42'2 4.1
2018-Apr-22 06:30N 35°27' E 139°40'0 0.0
2018-Apr-22 06:00N 35°27' E 139°40'0 0.0
2018-Apr-22 05:30N 35°27' E 139°40'0 0.0
2018-Apr-22 05:00N 35°27' E 139°40'0 0.0
2018-Apr-22 04:30N 35°27' E 139°40'0 0.0
2018-Apr-22 04:00N 35°27' E 139°40'0 0.0
2018-Apr-22 03:30N 35°27' E 139°40'0 0.0
2018-Apr-22 02:59N 35°27' E 139°40'0 0.0
2018-Apr-22 02:30N 35°27' E 139°40'0 0.0
2018-Apr-22 02:00N 35°27' E 139°40'0 0.0
2018-Apr-22 01:30N 35°27' E 139°40'0 0.0
2018-Apr-22 01:00N 35°27' E 139°40'0 0.0
2018-Apr-22 00:30N 35°27' E 139°40'0 0.0
2018-Apr-22 00:00N 35°27' E 139°40'0 0.0
2018-Apr-21 23:30N 35°27' E 139°40'0 0.0
2018-Apr-21 23:00N 35°27' E 139°40'0 0.0
2018-Apr-21 22:30N 35°27' E 139°40'0 0.0
2018-Apr-21 22:00N 35°27' E 139°40'0 0.0
2018-Apr-21 21:30N 35°27' E 139°40'0 0.0
2018-Apr-21 21:00N 35°27' E 139°40'0 0.0
2018-Apr-21 20:30N 35°27' E 139°40'0 0.0
2018-Apr-21 20:00N 35°27' E 139°40'0 0.0
2018-Apr-20 09:01N 35°27' E 139°40'0 0.0
2018-Apr-20 09:00N 35°27' E 139°40'2 3.2
2018-Apr-20 08:30N 35°28' E 139°41'2 3.2
2018-Apr-20 08:00N 35°27' E 139°40'0 0.0
2018-Apr-20 07:30N 35°27' E 139°40'0 0.0
2018-Apr-20 07:00N 35°27' E 139°40'0 0.0
2018-Apr-20 06:30N 35°27' E 139°40'0 0.0
2018-Apr-20 06:00N 35°27' E 139°40'0 0.0
2018-Apr-20 05:30N 35°27' E 139°40'0 0.0
2018-Apr-20 05:00N 35°27' E 139°40'0 0.0
2018-Apr-20 04:30N 35°27' E 139°40'0 0.0
2018-Apr-20 04:00N 35°27' E 139°40'0 0.0
2018-Apr-20 03:30N 35°27' E 139°40'0 0.0
2018-Apr-20 03:00N 35°27' E 139°40'0 0.0
2018-Apr-20 02:30N 35°27' E 139°40'0 0.0
2018-Apr-20 02:00N 35°27' E 139°40'0 0.0
2018-Apr-20 01:30N 35°27' E 139°40'0 0.0
2018-Apr-20 00:59N 35°27' E 139°40'0 0.0
2018-Apr-20 00:30N 35°27' E 139°40'0 0.0
2018-Apr-20 00:00N 35°27' E 139°40'1 2.8
2018-Apr-19 23:30N 35°28' E 139°41'1 2.0
2018-Apr-19 23:00N 35°28' E 139°42'1 1.9
2018-Apr-19 22:30N 35°27' E 139°43'0 0.9
2018-Apr-19 22:01N 35°27' E 139°43'1 1.0
2018-Apr-19 21:31N 35°27' E 139°42'2 4.1
2018-Apr-19 21:00N 35°27' E 139°40'0 0.0
2018-Apr-19 20:30N 35°27' E 139°40'0 0.0
2018-Apr-19 10:10N 35°27' E 139°40'1 6.9
2018-Apr-19 10:00N 35°27' E 139°41'2 3.6
2018-Apr-19 09:30N 35°25' E 139°41'0 0.8
2018-Apr-19 09:00N 35°26' E 139°42'0 0.1
2018-Apr-19 08:30N 35°26' E 139°42'0 0.1
2018-Apr-19 08:00N 35°26' E 139°41'1 2.7
2018-Apr-19 07:30N 35°27' E 139°41'1 2.5
2018-Apr-19 07:00N 35°28' E 139°40'0 0.6
2018-Apr-19 06:30N 35°28' E 139°40'1 2.4
2018-Apr-19 06:00N 35°27' E 139°40'0 0.0
2018-Apr-19 05:30N 35°27' E 139°40'0 0.0
2018-Apr-19 05:00N 35°27' E 139°40'0 0.0
2018-Apr-19 04:29N 35°27' E 139°40'0 0.0
2018-Apr-19 04:00N 35°27' E 139°40'0 0.0
2018-Apr-19 03:30N 35°27' E 139°40'0 0.0
2018-Apr-19 03:00N 35°27' E 139°40'0 0.0
2018-Apr-19 02:30N 35°27' E 139°40'0 0.0
2018-Apr-19 02:00N 35°27' E 139°40'0 0.0
2018-Apr-19 01:30N 35°27' E 139°40'0 0.0
2018-Apr-19 01:00N 35°27' E 139°40'0 0.0
2018-Apr-19 00:30N 35°27' E 139°40'0 0.6
2018-Apr-19 00:00N 35°27' E 139°39'0 0.0
2018-Apr-18 23:30N 35°27' E 139°39'0 0.6
2018-Apr-18 23:00N 35°27' E 139°40'5 9.3
2018-Apr-18 22:30N 35°28' E 139°45'3 5.2
2018-Apr-18 22:00N 35°30' E 139°46'2 3.0
2018-Apr-18 21:30N 35°30' E 139°44'0 0.1
2018-Apr-18 21:00N 35°30' E 139°44'3 6.5
2018-Apr-18 20:30N 35°28' E 139°41'1 2.7
2018-Apr-18 20:00N 35°27' E 139°40'0 0.0
2018-Apr-18 19:30N 35°27' E 139°40'0 0.0
2018-Apr-18 08:46N 35°27' E 139°40'0 0.0
2018-Apr-18 08:30N 35°27' E 139°40'0 0.0
2018-Apr-18 08:00N 35°27' E 139°40'0 0.0
2018-Apr-18 07:30N 35°27' E 139°40'0 0.0
2018-Apr-18 07:00N 35°27' E 139°40'0 0.1
2018-Apr-18 06:30N 35°27' E 139°40'1 1.3
2018-Apr-18 06:00N 35°27' E 139°40'1 3.0
2018-Apr-18 05:30N 35°26' E 139°42'0 0.2
2018-Apr-18 05:00N 35°26' E 139°42'0 0.4
2018-Apr-18 04:30N 35°26' E 139°42'0 0.0
2018-Apr-18 04:00N 35°26' E 139°42'2 3.6
2018-Apr-18 03:30N 35°28' E 139°42'0 0.1
2018-Apr-18 03:00N 35°28' E 139°42'2 3.8
2018-Apr-18 02:30N 35°27' E 139°40'0 0.0
2018-Apr-18 02:00N 35°27' E 139°40'0 0.0
2018-Apr-18 01:30N 35°27' E 139°40'0 0.0
2018-Apr-18 01:00N 35°27' E 139°40'0 0.0
2018-Apr-18 00:30N 35°27' E 139°40'0 0.0
2018-Apr-18 00:01N 35°27' E 139°40'0 0.0
2018-Apr-17 23:30N 35°27' E 139°40'0 0.0
2018-Apr-17 23:00N 35°27' E 139°40'0 0.0
2018-Apr-17 22:30N 35°27' E 139°40'0 0.0
2018-Apr-17 22:00N 35°27' E 139°40'0 0.0
2018-Apr-17 21:30N 35°27' E 139°40'0 0.0
2018-Apr-17 21:00N 35°27' E 139°40'0 0.0
2018-Apr-17 20:30N 35°27' E 139°40'0 0.0
2018-Apr-17 20:00N 35°27' E 139°40'0 0.0
2018-Apr-17 10:23N 35°27' E 139°40'410.2
2018-Apr-17 10:00N 35°28' E 139°44'3 5.1
2018-Apr-17 09:30N 35°30' E 139°45'2 3.2
2018-Apr-17 09:00N 35°30' E 139°43'2 4.1
2018-Apr-17 08:30N 35°28' E 139°41'2 3.9
2018-Apr-17 08:00N 35°27' E 139°40'0 0.0
2018-Apr-17 07:30N 35°27' E 139°40'0 0.0
2018-Apr-17 07:00N 35°27' E 139°40'0 0.0
2018-Apr-17 06:30N 35°27' E 139°40'0 0.0
2018-Apr-17 06:00N 35°27' E 139°40'0 0.0
2018-Apr-17 05:30N 35°27' E 139°40'0 0.0
2018-Apr-17 05:00N 35°27' E 139°40'0 0.0
2018-Apr-17 04:30N 35°27' E 139°40'2 3.1
2018-Apr-17 04:00N 35°27' E 139°42'3 6.2
2018-Apr-17 03:30N 35°24' E 139°41'1 1.3
2018-Apr-17 03:00N 35°24' E 139°41'1 1.6
2018-Apr-17 02:30N 35°23' E 139°41'1 2.4
2018-Apr-17 02:00N 35°22' E 139°41'4 8.6
2018-Apr-17 01:30N 35°27' E 139°41'1 2.6
2018-Apr-17 01:00N 35°27' E 139°40'0 0.0
2018-Apr-17 00:30N 35°27' E 139°40'0 0.0
2018-Apr-17 00:00N 35°27' E 139°40'0 0.0
2018-Apr-16 23:30N 35°27' E 139°40'0 0.8
2018-Apr-16 23:00N 35°27' E 139°40'5 9.2
2018-Apr-16 22:30N 35°28' E 139°46'3 5.9
2018-Apr-16 22:00N 35°31' E 139°46'0 0.1
2018-Apr-16 21:30N 35°31' E 139°46'3 6.5
2018-Apr-16 21:00N 35°29' E 139°43'3 6.8
2018-Apr-16 20:30N 35°27' E 139°40'0 0.0
2018-Apr-16 20:00N 35°27' E 139°40'0 0.0
2018-Apr-16 08:05N 35°27' E 139°40'0 0.1
2018-Apr-16 08:00N 35°27' E 139°40'0 0.0
2018-Apr-16 07:30N 35°27' E 139°40'0 0.0
2018-Apr-16 07:00N 35°27' E 139°40'0 0.0
2018-Apr-16 06:30N 35°27' E 139°40'0 0.0
2018-Apr-16 06:00N 35°27' E 139°40'0 0.0
2018-Apr-16 05:30N 35°27' E 139°40'0 0.0
2018-Apr-16 05:00N 35°27' E 139°40'0 0.0
2018-Apr-16 04:30N 35°27' E 139°40'0 0.0
2018-Apr-16 04:00N 35°27' E 139°40'2 3.3
2018-Apr-16 03:30N 35°27' E 139°42'3 6.5
2018-Apr-16 03:01N 35°29' E 139°45'0 0.4
2018-Apr-16 02:30N 35°29' E 139°44'1 1.5
2018-Apr-16 02:00N 35°29' E 139°45'0 0.1
2018-Apr-16 01:30N 35°29' E 139°45'2 3.8
2018-Apr-16 01:00N 35°30' E 139°47'1 2.2
2018-Apr-16 00:30N 35°31' E 139°46'2 3.1
2018-Apr-16 00:00N 35°30' E 139°47'4 7.9
2018-Apr-15 23:31N 35°27' E 139°45'1 2.6
2018-Apr-15 23:00N 35°28' E 139°45'0 0.6
2018-Apr-15 22:30N 35°28' E 139°45'2 3.1
2018-Apr-15 22:00N 35°29' E 139°47'  
Track history (hours):
 
Tides and Currents Weather Stations Pressure Air Temp Water Temp Dewpoint Dewpoint Depression Visibility Wind Speed Wind Dir Waves Ship Positions

Chitose

Last reported at 2018-Apr-25 21:30 UTC. Time now 2018-Apr-25 21:44 UTC.
Position N 35°28' E 139°41'.

Length 33 m; draft 3.8 m.

Type: Tug. MMSI: 431000953.

Date/timePositionNaut miles runAvg speedWind from/ knotsBaromVisibWave heightAir tempDewpointWater temp
2018-Apr-25 21:30N 35°28' E 139°41'2 3.2
2018-Apr-25 21:00N 35°27' E 139°40'0 0.0
2018-Apr-24 22:59N 35°27' E 139°40'2 3.3
2018-Apr-24 22:30N 35°28' E 139°41'0 0.2
2018-Apr-24 22:00N 35°28' E 139°41'2 3.8
2018-Apr-24 21:30N 35°27' E 139°44'1 2.9
2018-Apr-24 21:01N 35°27' E 139°42'0 0.0
2018-Apr-24 20:31N 35°27' E 139°42'1 2.4
2018-Apr-24 20:01N 35°26' E 139°41'0 0.1
2018-Apr-24 19:30N 35°26' E 139°41'1 2.3
2018-Apr-24 19:00N 35°27' E 139°40'0 0.0
2018-Apr-24 09:53N 35°27' E 139°40'2 4.2
2018-Apr-24 09:30N 35°28' E 139°41'1 1.9
2018-Apr-24 09:00N 35°28' E 139°42'2 4.3
2018-Apr-24 08:31N 35°27' E 139°44'2 3.8
2018-Apr-24 08:00N 35°28' E 139°42'0 0.0
2018-Apr-24 07:30N 35°28' E 139°42'0 0.0
2018-Apr-24 07:00N 35°28' E 139°42'0 0.0
2018-Apr-24 06:30N 35°28' E 139°42'0 0.0
2018-Apr-24 06:00N 35°28' E 139°42'0 0.0
2018-Apr-24 05:30N 35°28' E 139°42'0 0.0
2018-Apr-24 05:00N 35°28' E 139°42'0 0.0
2018-Apr-24 04:30N 35°28' E 139°42'2 3.8
2018-Apr-24 04:00N 35°29' E 139°43'3 6.0
2018-Apr-24 03:30N 35°31' E 139°46'0 0.0
2018-Apr-24 03:00N 35°31' E 139°46'0 0.6
2018-Apr-24 02:30N 35°31' E 139°46'1 2.5
2018-Apr-24 02:00N 35°30' E 139°48'1 1.6
2018-Apr-24 01:30N 35°29' E 139°47'4 8.4
2018-Apr-24 01:00N 35°27' E 139°43'2 4.8
2018-Apr-24 00:30N 35°27' E 139°40'0 0.0
2018-Apr-24 00:01N 35°27' E 139°40'0 0.0
2018-Apr-23 23:30N 35°27' E 139°40'0 0.0
2018-Apr-23 23:00N 35°27' E 139°40'0 0.0
2018-Apr-22 23:46N 35°27' E 139°40'1 3.8
2018-Apr-22 23:30N 35°27' E 139°41'0 0.6
2018-Apr-22 23:01N 35°26' E 139°41'2 3.0
2018-Apr-22 22:31N 35°26' E 139°43'1 2.1
2018-Apr-22 22:00N 35°27' E 139°43'0 0.0
2018-Apr-22 21:30N 35°27' E 139°43'0 0.0
2018-Apr-22 21:00N 35°27' E 139°43'0 0.1
2018-Apr-22 20:30N 35°27' E 139°43'1 2.4
2018-Apr-22 20:00N 35°28' E 139°42'0 0.1
2018-Apr-22 19:30N 35°28' E 139°42'0 0.7
2018-Apr-22 19:00N 35°28' E 139°42'0 0.0
2018-Apr-22 18:30N 35°28' E 139°42'0 0.0
2018-Apr-22 18:00N 35°28' E 139°42'0 0.0
2018-Apr-22 17:30N 35°28' E 139°42'0 0.0
2018-Apr-22 17:00N 35°28' E 139°42'0 0.0
2018-Apr-22 16:30N 35°28' E 139°42'1 2.6
2018-Apr-22 16:00N 35°26' E 139°42'3 5.8
2018-Apr-22 15:31N 35°24' E 139°41'0 0.2
2018-Apr-22 15:00N 35°24' E 139°41'1 2.4
2018-Apr-22 14:30N 35°25' E 139°42'2 4.6
2018-Apr-22 14:00N 35°27' E 139°41'0 0.0
2018-Apr-22 13:30N 35°27' E 139°41'0 0.0
2018-Apr-22 13:00N 35°27' E 139°41'0 0.0
2018-Apr-22 12:30N 35°27' E 139°41'0 0.0
2018-Apr-22 12:00N 35°27' E 139°41'0 0.0
2018-Apr-22 11:30N 35°27' E 139°41'0 0.3
2018-Apr-22 11:01N 35°27' E 139°41'0 0.5
2018-Apr-22 10:30N 35°27' E 139°40'0 0.7
2018-Apr-22 10:00N 35°27' E 139°41'2 4.0
2018-Apr-22 09:30N 35°26' E 139°43'1 1.5
2018-Apr-22 09:00N 35°27' E 139°43'0 0.9
2018-Apr-22 08:30N 35°27' E 139°42'1 1.2
2018-Apr-22 08:00N 35°28' E 139°42'0 0.6
2018-Apr-22 07:30N 35°28' E 139°42'1 1.4
2018-Apr-22 07:00N 35°28' E 139°42'2 4.1
2018-Apr-22 06:30N 35°27' E 139°40'0 0.0
2018-Apr-22 06:00N 35°27' E 139°40'0 0.0
2018-Apr-22 05:30N 35°27' E 139°40'0 0.0
2018-Apr-22 05:00N 35°27' E 139°40'0 0.0
2018-Apr-22 04:30N 35°27' E 139°40'0 0.0
2018-Apr-22 04:00N 35°27' E 139°40'0 0.0
2018-Apr-22 03:30N 35°27' E 139°40'0 0.0
2018-Apr-22 02:59N 35°27' E 139°40'0 0.0
2018-Apr-22 02:30N 35°27' E 139°40'0 0.0
2018-Apr-22 02:00N 35°27' E 139°40'0 0.0
2018-Apr-22 01:30N 35°27' E 139°40'0 0.0
2018-Apr-22 01:00N 35°27' E 139°40'0 0.0
2018-Apr-22 00:30N 35°27' E 139°40'0 0.0
2018-Apr-22 00:00N 35°27' E 139°40'0 0.0
2018-Apr-21 23:30N 35°27' E 139°40'0 0.0
2018-Apr-21 23:00N 35°27' E 139°40'0 0.0
2018-Apr-21 22:30N 35°27' E 139°40'0 0.0
2018-Apr-21 22:00N 35°27' E 139°40'0 0.0
2018-Apr-21 21:30N 35°27' E 139°40'0 0.0
2018-Apr-21 21:00N 35°27' E 139°40'0 0.0
2018-Apr-21 20:30N 35°27' E 139°40'0 0.0
2018-Apr-21 20:00N 35°27' E 139°40'0 0.0
2018-Apr-20 09:01N 35°27' E 139°40'0 0.0
2018-Apr-20 09:00N 35°27' E 139°40'2 3.2
2018-Apr-20 08:30N 35°28' E 139°41'2 3.2
2018-Apr-20 08:00N 35°27' E 139°40'0 0.0
2018-Apr-20 07:30N 35°27' E 139°40'0 0.0
2018-Apr-20 07:00N 35°27' E 139°40'0 0.0
2018-Apr-20 06:30N 35°27' E 139°40'0 0.0
2018-Apr-20 06:00N 35°27' E 139°40'0 0.0
2018-Apr-20 05:30N 35°27' E 139°40'0 0.0
2018-Apr-20 05:00N 35°27' E 139°40'0 0.0
2018-Apr-20 04:30N 35°27' E 139°40'0 0.0
2018-Apr-20 04:00N 35°27' E 139°40'0 0.0
2018-Apr-20 03:30N 35°27' E 139°40'0 0.0
2018-Apr-20 03:00N 35°27' E 139°40'0 0.0
2018-Apr-20 02:30N 35°27' E 139°40'0 0.0
2018-Apr-20 02:00N 35°27' E 139°40'0 0.0
2018-Apr-20 01:30N 35°27' E 139°40'0 0.0
2018-Apr-20 00:59N 35°27' E 139°40'0 0.0
2018-Apr-20 00:30N 35°27' E 139°40'0 0.0
2018-Apr-20 00:00N 35°27' E 139°40'1 2.8
2018-Apr-19 23:30N 35°28' E 139°41'1 2.0
2018-Apr-19 23:00N 35°28' E 139°42'1 1.9
2018-Apr-19 22:30N 35°27' E 139°43'0 0.9
2018-Apr-19 22:01N 35°27' E 139°43'1 1.0
2018-Apr-19 21:31N 35°27' E 139°42'2 4.1
2018-Apr-19 21:00N 35°27' E 139°40'0 0.0
2018-Apr-19 20:30N 35°27' E 139°40'0 0.0
2018-Apr-19 10:10N 35°27' E 139°40'1 6.9
2018-Apr-19 10:00N 35°27' E 139°41'2 3.6
2018-Apr-19 09:30N 35°25' E 139°41'0 0.8
2018-Apr-19 09:00N 35°26' E 139°42'0 0.1
2018-Apr-19 08:30N 35°26' E 139°42'0 0.1
2018-Apr-19 08:00N 35°26' E 139°41'1 2.7
2018-Apr-19 07:30N 35°27' E 139°41'1 2.5
2018-Apr-19 07:00N 35°28' E 139°40'0 0.6
2018-Apr-19 06:30N 35°28' E 139°40'1 2.4
2018-Apr-19 06:00N 35°27' E 139°40'0 0.0
2018-Apr-19 05:30N 35°27' E 139°40'0 0.0
2018-Apr-19 05:00N 35°27' E 139°40'0 0.0
2018-Apr-19 04:29N 35°27' E 139°40'0 0.0
2018-Apr-19 04:00N 35°27' E 139°40'0 0.0
2018-Apr-19 03:30N 35°27' E 139°40'0 0.0
2018-Apr-19 03:00N 35°27' E 139°40'0 0.0
2018-Apr-19 02:30N 35°27' E 139°40'0 0.0
2018-Apr-19 02:00N 35°27' E 139°40'0 0.0
2018-Apr-19 01:30N 35°27' E 139°40'0 0.0
2018-Apr-19 01:00N 35°27' E 139°40'0 0.0
2018-Apr-19 00:30N 35°27' E 139°40'0 0.6
2018-Apr-19 00:00N 35°27' E 139°39'0 0.0
2018-Apr-18 23:30N 35°27' E 139°39'0 0.6
2018-Apr-18 23:00N 35°27' E 139°40'5 9.3
2018-Apr-18 22:30N 35°28' E 139°45'3 5.2
2018-Apr-18 22:00N 35°30' E 139°46'2 3.0
2018-Apr-18 21:30N 35°30' E 139°44'0 0.1
2018-Apr-18 21:00N 35°30' E 139°44'3 6.5
2018-Apr-18 20:30N 35°28' E 139°41'1 2.7
2018-Apr-18 20:00N 35°27' E 139°40'0 0.0
2018-Apr-18 19:30N 35°27' E 139°40'0 0.0
2018-Apr-18 08:46N 35°27' E 139°40'0 0.0
2018-Apr-18 08:30N 35°27' E 139°40'0 0.0
2018-Apr-18 08:00N 35°27' E 139°40'0 0.0
2018-Apr-18 07:30N 35°27' E 139°40'0 0.0
2018-Apr-18 07:00N 35°27' E 139°40'0 0.1
2018-Apr-18 06:30N 35°27' E 139°40'1 1.3
2018-Apr-18 06:00N 35°27' E 139°40'1 3.0
2018-Apr-18 05:30N 35°26' E 139°42'0 0.2
2018-Apr-18 05:00N 35°26' E 139°42'0 0.4
2018-Apr-18 04:30N 35°26' E 139°42'0 0.0
2018-Apr-18 04:00N 35°26' E 139°42'2 3.6
2018-Apr-18 03:30N 35°28' E 139°42'0 0.1
2018-Apr-18 03:00N 35°28' E 139°42'2 3.8
2018-Apr-18 02:30N 35°27' E 139°40'0 0.0
2018-Apr-18 02:00N 35°27' E 139°40'0 0.0
2018-Apr-18 01:30N 35°27' E 139°40'0 0.0
2018-Apr-18 01:00N 35°27' E 139°40'0 0.0
2018-Apr-18 00:30N 35°27' E 139°40'0 0.0
2018-Apr-18 00:01N 35°27' E 139°40'0 0.0
2018-Apr-17 23:30N 35°27' E 139°40'0 0.0
2018-Apr-17 23:00N 35°27' E 139°40'0 0.0
2018-Apr-17 22:30N 35°27' E 139°40'0 0.0
2018-Apr-17 22:00N 35°27' E 139°40'0 0.0
2018-Apr-17 21:30N 35°27' E 139°40'0 0.0
2018-Apr-17 21:00N 35°27' E 139°40'0 0.0
2018-Apr-17 20:30N 35°27' E 139°40'0 0.0
2018-Apr-17 20:00N 35°27' E 139°40'0 0.0
2018-Apr-17 10:23N 35°27' E 139°40'410.2
2018-Apr-17 10:00N 35°28' E 139°44'3 5.1
2018-Apr-17 09:30N 35°30' E 139°45'2 3.2
2018-Apr-17 09:00N 35°30' E 139°43'2 4.1
2018-Apr-17 08:30N 35°28' E 139°41'2 3.9
2018-Apr-17 08:00N 35°27' E 139°40'0 0.0
2018-Apr-17 07:30N 35°27' E 139°40'0 0.0
2018-Apr-17 07:00N 35°27' E 139°40'0 0.0
2018-Apr-17 06:30N 35°27' E 139°40'0 0.0
2018-Apr-17 06:00N 35°27' E 139°40'0 0.0
2018-Apr-17 05:30N 35°27' E 139°40'0 0.0
2018-Apr-17 05:00N 35°27' E 139°40'0 0.0
2018-Apr-17 04:30N 35°27' E 139°40'2 3.1
2018-Apr-17 04:00N 35°27' E 139°42'3 6.2
2018-Apr-17 03:30N 35°24' E 139°41'1 1.3
2018-Apr-17 03:00N 35°24' E 139°41'1 1.6
2018-Apr-17 02:30N 35°23' E 139°41'1 2.4
2018-Apr-17 02:00N 35°22' E 139°41'4 8.6
2018-Apr-17 01:30N 35°27' E 139°41'1 2.6
2018-Apr-17 01:00N 35°27' E 139°40'0 0.0
2018-Apr-17 00:30N 35°27' E 139°40'0 0.0
2018-Apr-17 00:00N 35°27' E 139°40'0 0.0
2018-Apr-16 23:30N 35°27' E 139°40'0 0.8
2018-Apr-16 23:00N 35°27' E 139°40'5 9.2
2018-Apr-16 22:30N 35°28' E 139°46'3 5.9
2018-Apr-16 22:00N 35°31' E 139°46'0 0.1
2018-Apr-16 21:30N 35°31' E 139°46'3 6.5
2018-Apr-16 21:00N 35°29' E 139°43'3 6.8
2018-Apr-16 20:30N 35°27' E 139°40'0 0.0
2018-Apr-16 20:00N 35°27' E 139°40'0 0.0
2018-Apr-16 08:05N 35°27' E 139°40'0 0.1
2018-Apr-16 08:00N 35°27' E 139°40'0 0.0
2018-Apr-16 07:30N 35°27' E 139°40'0 0.0
2018-Apr-16 07:00N 35°27' E 139°40'0 0.0
2018-Apr-16 06:30N 35°27' E 139°40'0 0.0
2018-Apr-16 06:00N 35°27' E 139°40'0 0.0
2018-Apr-16 05:30N 35°27' E 139°40'0 0.0
2018-Apr-16 05:00N 35°27' E 139°40'0 0.0
2018-Apr-16 04:30N 35°27' E 139°40'0 0.0
2018-Apr-16 04:00N 35°27' E 139°40'2 3.3
2018-Apr-16 03:30N 35°27' E 139°42'3 6.5
2018-Apr-16 03:01N 35°29' E 139°45'0 0.4
2018-Apr-16 02:30N 35°29' E 139°44'1 1.5
2018-Apr-16 02:00N 35°29' E 139°45'0 0.1
2018-Apr-16 01:30N 35°29' E 139°45'2 3.8
2018-Apr-16 01:00N 35°30' E 139°47'1 2.2
2018-Apr-16 00:30N 35°31' E 139°46'2 3.1
2018-Apr-16 00:00N 35°30' E 139°47'4 7.9
2018-Apr-15 23:31N 35°27' E 139°45'1 2.6
2018-Apr-15 23:00N 35°28' E 139°45'0 0.6
2018-Apr-15 22:30N 35°28' E 139°45'2 3.1
2018-Apr-15 22:00N 35°29' E 139°47'  

Dump ship's entire track history